Latest Weather Observations for Strathalbyn

IDS60801

Issued at 6:01 pm CDT Tuesday 17 October 2017 (issued every 30 minutes, with the page automatically refreshed every 10 minutes)

About weather observations | Map of weather stations | Latest weather observations for SA | Other Formats
Station Details ID: 024580 Name: STRATHALBYN RACECOURSE Lat: -35.28 Lon: 138.89 Height: 58.0 m
Data from the previous 72 hours. | See also: Recent months at Strathalbyn
Date/Time
CDT
Temp
°C
App
Temp
°C
Dew
Point
°C
Rel
Hum
%
Delta-T
°C
Wind Press
QNH
hPa
Press
MSL
hPa
Rain since
9am
mm
Dir  Spd
km/h
Gust
km/h
Spd
kts
Gust
kts
17/06:00pm 31.3 25.8 5.7 20 13.6 NNE 24 32 13 17 1014.0 1014.0 0.0
17/05:30pm 31.6 26.7 5.2 19 13.9 N 20 35 11 19 1013.9 1013.9 0.0
17/05:00pm 31.8 26.0 4.6 18 14.2 N 24 33 13 18 1013.8 1013.8 0.0
17/04:30pm 31.9 26.1 4.6 18 14.3 N 24 37 13 20 1014.0 1014.0 0.0
17/04:00pm 31.9 26.5 6.2 20 13.8 N 24 35 13 19 1013.9 1013.9 0.0
17/03:30pm 32.2 27.3 4.9 18 14.4 N 20 35 11 19 1014.2 1014.2 0.0
17/03:00pm 32.2 27.4 4.9 18 14.4 N 19 28 10 15 1014.4 1014.4 0.0
17/02:30pm 32.0 25.9 4.7 18 14.3 N 26 41 14 22 1014.9 1014.9 0.0
17/02:00pm 31.6 26.0 5.2 19 13.9 N 24 35 13 19 1015.1 1015.1 0.0
17/01:30pm 31.6 26.5 5.9 20 13.7 NNW 22 35 12 19 1015.4 1015.4 0.0
17/01:00pm 31.1 25.9 5.5 20 13.5 NNW 22 35 12 19 1015.7 1015.7 0.0
17/12:30pm 30.8 26.5 7.9 24 12.6 NNW 20 30 11 16 1016.0 1016.0 0.0
17/12:00pm 30.6 25.5 7.7 24 12.5 N 24 37 13 20 1016.3 1016.3 0.0
17/11:30am 30.0 23.0 6.0 22 12.7 N 32 46 17 25 1016.7 1016.7 0.0
17/11:00am 29.6 22.7 6.3 23 12.4 N 32 41 17 22 1016.8 1016.8 0.0
17/10:30am 29.2 21.9 5.3 22 12.4 N 33 44 18 24 1017.0 1017.0 0.0
17/10:00am 28.9 23.2 6.9 25 11.8 N 26 41 14 22 1017.0 1017.0 0.0
17/09:30am 28.3 23.4 7.0 26 11.4 N 22 35 12 19 1017.1 1017.1 0.0
17/09:00am 27.0 22.7 6.9 28 10.6 N 19 28 10 15 1017.1 1017.1 0.0
17/08:30am 24.9 22.2 8.8 36 8.7 NNE 13 17 7 9 1017.2 1017.2 0.0
17/08:00am 22.6 20.4 9.4 43 7.1 NNE 11 13 6 7 1017.1 1017.1 0.0
17/07:30am 19.6 17.3 8.9 50 5.6 NNE 11 13 6 7 1016.9 1016.9 0.0
17/07:00am 18.6 14.5 8.0 50 5.4 NNE 19 24 10 13 1016.5 1016.5 0.0
17/06:30am 18.1 14.2 8.7 54 4.9 NNE 19 24 10 13 1016.5 1016.5 0.0
17/06:00am 15.9 13.6 8.9 63 3.6 NE 11 13 6 7 1016.0 1016.0 0.0
17/05:30am 14.6 12.6 8.5 67 3.1 N 9 11 5 6 1015.7 1015.7 0.0
17/05:00am 15.1 12.9 9.5 69 2.9 N 11 15 6 8 1015.7 1015.7 0.0
17/04:30am 12.7 11.5 8.2 74 2.2 NNE 4 11 2 6 1015.7 1015.7 0.0
17/04:00am 13.3 12.7 9.0 75 2.2 E 2 7 1 4 1015.7 1015.7 0.0
17/03:30am 14.3 11.9 8.7 69 2.8 N 11 13 6 7 1015.7 1015.7 0.0
17/03:00am 14.5 11.9 9.3 71 2.7 NNW 13 15 7 8 1015.8 1015.8 0.0
17/02:30am 14.0 12.2 9.4 74 2.4 NNW 9 11 5 6 1016.1 1016.1 0.0
17/02:00am 15.1 13.0 9.9 71 2.7 NNW 11 13 6 7 1016.5 1016.5 0.0
17/01:30am 15.9 13.0 9.8 67 3.2 NW 15 17 8 9 1016.8 1016.8 0.0
17/01:00am 15.7 13.3 10.2 70 2.9 NNW 13 17 7 9 1017.2 1017.2 0.0
17/12:30am 15.9 13.2 10.2 69 3.0 NNW 15 19 8 10 1017.5 1017.5 0.0
17/12:00am 15.9 13.6 10.4 70 2.9 NNW 13 17 7 9 1017.7 1017.7 0.0
 
Date/Time
CDT
Temp
°C
App
Temp
°C
Dew
Point
°C
Rel
Hum
%
Delta-T
°C
Wind Press
QNH
hPa
Press
MSL
hPa
Rain since
9am
mm
Dir  Spd
km/h
Gust
km/h
Spd
kts
Gust
kts
16/11:30pm 15.9 14.0 10.4 70 2.9 NW 11 13 6 7 1018.0 1018.0 0.0
16/11:00pm 16.0 14.4 10.1 68 3.1 W 9 11 5 6 1018.1 1018.1 0.0
16/10:30pm 16.7 15.1 10.1 65 3.5 WSW 9 9 5 5 1018.2 1018.2 0.0
16/10:00pm 17.0 15.9 10.6 66 3.4 WNW 7 13 4 7 1018.2 1018.2 0.0
16/09:30pm 17.3 16.4 11.3 68 3.3 NNW 7 9 4 5 1018.2 1018.2 0.0
16/09:00pm 19.2 17.8 11.0 59 4.5 WSW 9 11 5 6 1017.9 1017.9 0.0
16/08:30pm 21.0 19.3 11.1 53 5.5 WSW 11 13 6 7 1017.5 1017.5 0.0
16/08:00pm 20.8 19.6 11.7 56 5.1 SSW 9 11 5 6 1017.2 1017.2 0.0
16/07:30pm 23.5 21.2 10.6 44 7.1 SSW 13 17 7 9 1016.8 1016.8 0.0
16/07:00pm 27.3 25.5 9.6 33 9.8 SSW 9 13 5 7 1016.5 1016.5 0.0
16/06:30pm 29.6 28.2 9.7 29 11.2 WNW 7 11 4 6 1016.6 1016.6 0.0
16/06:00pm 30.5 28.1 7.0 23 12.7 NW 9 15 5 8 1016.4 1016.4 0.0
16/05:30pm 30.5 27.3 7.0 23 12.7 NNW 13 20 7 11 1016.3 1016.3 0.0
16/05:00pm 30.7 27.1 6.6 22 13.0 NNW 15 24 8 13 1016.4 1016.4 0.0
16/04:30pm 30.4 26.9 5.6 21 13.1 N 13 22 7 12 1016.5 1016.5 0.0
16/04:00pm 30.4 26.3 6.3 22 12.9 NNW 17 26 9 14 1016.7 1016.7 0.0
16/03:30pm 30.7 26.8 7.2 23 12.7 NNW 17 24 9 13 1017.1 1017.1 0.0
16/03:00pm 30.4 27.4 7.6 24 12.4 NNE 13 24 7 13 1017.5 1017.5 0.0
16/02:30pm 30.8 28.3 9.6 27 12.0 N 13 22 7 12 1017.8 1017.8 0.0
16/02:00pm 30.4 28.0 8.7 26 12.1 NNW 11 20 6 11 1018.2 1018.2 0.0
16/01:30pm 29.9 26.9 9.4 28 11.5 N 15 24 8 13 1018.3 1018.3 0.0
16/01:00pm 29.3 25.9 7.8 26 11.7 NE 15 28 8 15 1018.5 1018.5 0.0
16/12:30pm 29.1 25.3 7.7 26 11.6 NNE 17 28 9 15 1018.9 1018.9 0.0
16/12:00pm 28.4 25.4 9.2 30 10.6 NNE 15 20 8 11 1019.3 1019.3 0.0
16/11:30am 27.3 24.3 9.2 32 10.0 NNE 15 22 8 12 1020.0 1019.9 0.0
16/11:00am 25.4 22.8 9.3 36 8.8 NNE 13 26 7 14 1020.5 1020.4 0.0
16/10:30am 23.6 20.4 9.9 42 7.5 NE 17 24 9 13 1020.9 1020.8 0.0
16/10:00am 21.6 18.4 9.8 47 6.4 NE 17 22 9 12 1021.3 1021.2 0.0
16/09:30am 20.6 17.5 11.5 56 5.0 NE 19 24 10 13 1021.5 1021.4 0.0
16/09:00am 18.2 16.6 11.5 65 3.7 NE 11 15 6 8 1021.6 1021.5 0.0
16/08:30am 16.1 15.2 11.5 74 2.5 NE 7 9 4 5 1021.7 1021.6 0.0
16/08:00am 13.9 13.1 11.1 83 1.5 NNE 6 7 3 4 1021.6 1021.5 0.0
16/07:30am 11.6 10.0 10.2 91 0.7 N 9 11 5 6 1021.4 1021.3 0.0
16/07:00am 9.6 7.3 9.0 96 0.3 NNW 11 11 6 6 1021.2 1021.1 0.0
16/06:30am 9.2 6.4 8.7 97 0.2 NNW 13 13 7 7 1020.9 1020.8 0.0
16/06:00am 9.2 6.4 8.7 97 0.2 NNW 13 15 7 8 1020.7 1020.6 0.0
16/05:30am 9.1 7.1 8.5 96 0.3 N 9 11 5 6 1020.7 1020.6 0.0
16/05:00am 9.6 7.7 9.1 97 0.2 N 9 11 5 6 1020.4 1020.3 0.0
16/04:30am 10.3 7.8 9.8 97 0.3 NNW 13 15 7 8 1020.5 1020.4 0.0
16/04:00am 9.9 7.7 9.4 97 0.2 NNW 11 13 6 7 1020.6 1020.5 0.0
16/03:30am 10.2 7.7 9.6 96 0.3 NW 13 13 7 7 1021.0 1020.9 0.0
16/03:00am 10.7 8.7 10.1 96 0.3 NW 11 13 6 7 1021.1 1021.0 0.0
16/02:30am 10.7 8.5 9.3 91 0.7 NW 11 11 6 6 1021.3 1021.2 0.0
16/02:00am 12.3 10.8 10.5 89 0.9 W 9 11 5 6 1021.7 1021.6 0.0
16/01:30am 13.0 11.4 11.7 92 0.7 WSW 11 15 6 8 1022.0 1021.9 0.0
16/01:00am 12.9 11.4 11.8 93 0.6 WSW 11 15 6 8 1022.3 1022.2 0.0
16/12:30am 11.8 10.8 10.2 90 0.8 WSW 6 11 3 6 1022.5 1022.4 0.0
16/12:00am 12.3 11.4 10.5 89 0.9 WSW 6 9 3 5 1022.5 1022.4 0.0
 
Date/Time
CDT
Temp
°C
App
Temp
°C
Dew
Point
°C
Rel
Hum
%
Delta-T
°C
Wind Press
QNH
hPa
Press
MSL
hPa
Rain since
9am
mm
Dir  Spd
km/h
Gust
km/h
Spd
kts
Gust
kts
15/11:30pm 12.1 10.9 10.3 89 0.9 WSW 7 9 4 5 1022.6 1022.5 0.0
15/11:00pm 12.3 10.8 10.7 90 0.8 W 9 13 5 7 1022.5 1022.4 0.0
15/10:30pm 12.0 10.7 10.1 88 1.0 W 7 9 4 5 1022.5 1022.4 0.0
15/10:00pm 12.1 10.4 10.0 87 1.1 W 9 11 5 6 1022.3 1022.2 0.0
15/09:30pm 12.2 10.6 10.1 87 1.1 W 9 11 5 6 1022.2 1022.1 0.0
15/09:00pm 12.3 10.6 10.0 86 1.2 WSW 9 13 5 7 1022.2 1022.1 0.0
15/08:30pm 12.8 10.8 10.2 84 1.3 WSW 11 15 6 8 1022.0 1021.9 0.0
15/08:00pm 13.0 10.9 9.6 80 1.7 WSW 11 15 6 8 1022.0 1021.9 0.0
15/07:30pm 14.0 11.9 9.6 75 2.3 SW 11 15 6 8 1021.7 1021.6 0.0
15/07:00pm 15.4 12.2 10.0 70 2.8 SW 17 20 9 11 1021.8 1021.7 0.0
15/06:30pm 16.7 13.6 10.3 66 3.4 S 17 22 9 12 1021.6 1021.5 0.0
15/06:00pm 17.4 13.5 9.6 60 4.1 S 20 26 11 14 1021.5 1021.4 0.0
15/05:30pm 18.5 14.1 9.0 54 5.0 S 22 30 12 16 1021.4 1021.3 0.0
15/05:00pm 18.8 13.8 8.2 50 5.5 S 24 32 13 17 1021.4 1021.3 0.0
15/04:30pm 19.7 14.1 8.7 49 5.7 SSW 28 35 15 19 1021.3 1021.2 0.0
15/04:00pm 20.0 14.5 9.3 50 5.7 S 28 35 15 19 1021.3 1021.2 0.0
15/03:30pm 21.5 17.4 10.0 48 6.2 SSE 22 30 12 16 1021.3 1021.2 0.0
15/03:00pm 21.7 17.8 9.6 46 6.5 SSE 20 30 11 16 1021.6 1021.5 0.0
15/02:30pm 21.5 17.5 8.4 43 6.9 SSE 19 26 10 14 1021.9 1021.8 0.0
15/02:00pm 21.8 18.9 8.0 41 7.2 SE 13 24 7 13 1022.2 1022.1 0.0
15/01:30pm 21.0 18.1 8.0 43 6.7 ESE 13 19 7 10 1022.3 1022.2 0.0
15/01:00pm 20.8 18.1 7.4 42 6.9 ESE 11 20 6 11 1022.4 1022.3 0.0
15/12:30pm 20.1 17.6 8.4 47 6.1 SE 11 20 6 11 1022.7 1022.6 0.0
15/12:00pm 20.0 18.2 9.3 50 5.7 SE 9 15 5 8 1023.1 1023.0 0.0
15/11:30am 19.2 16.5 8.8 51 5.4 E 13 20 7 11 1023.4 1023.3 0.0
15/11:00am 18.2 15.0 8.5 53 5.0 E 15 22 8 12 1023.9 1023.8 0.0
15/10:30am 17.7 15.9 9.3 58 4.4 ESE 9 15 5 8 1024.3 1024.2 0.0
15/10:00am 16.2 14.9 10.1 67 3.2 ENE 7 15 4 8 1024.4 1024.3 0.0
15/09:30am 15.0 13.2 9.6 70 2.8 E 9 15 5 8 1024.6 1024.5 0.0
15/09:00am 13.6 12.4 9.5 76 2.1 E 6 13 3 7 1024.7 1024.6 0.0
15/08:30am 12.9 12.0 10.6 86 1.2 ENE 6 9 3 5 1024.5 1024.4 0.0
15/08:00am 11.0 10.1 10.5 97 0.3 NNW 6 7 3 4 1024.3 1024.2 0.0
15/07:30am 9.5 8.9 9.0 97 0.2 NNE 2 6 1 3 1024.1 1024.0 0.0
15/07:00am 7.5 6.8 7.1 97 0.2 CALM 0 0 0 0 1023.9 1023.8 0.0
15/06:30am 7.8 6.0 7.2 96 0.3 WNW 6 7 3 4 1023.7 1023.6 0.0
15/06:00am 7.8 7.0 6.7 93 0.5 CALM 0 0 0 0 1023.4 1023.3 0.0
15/05:30am 8.6 8.0 7.4 92 0.6 CALM 0 0 0 0 1023.3 1023.2 0.0
15/05:00am 9.1 8.5 7.4 89 0.8 CALM 0 0 0 0 1023.3 1023.2 0.0
15/04:30am 10.0 9.6 8.1 88 0.9 CALM 0 0 0 0 1023.4 1023.3 0.0
15/04:00am 11.3 11.2 9.4 88 1.0 CALM 0 0 0 0 1023.7 1023.6 0.0
15/03:30am 12.2 11.9 10.1 87 1.1 SE 2 6 1 3 1023.6 1023.5 0.0
15/03:00am 12.6 12.8 10.5 87 1.1 CALM 0 0 0 0 1024.0 1023.9 0.0
15/02:30am 12.8 12.2 10.5 86 1.2 SW 4 7 2 4 1024.0 1023.9 0.0
15/02:00am 12.8 11.9 10.5 86 1.2 SSW 6 7 3 4 1024.2 1024.1 0.0
15/01:30am 12.8 13.0 10.7 87 1.1 CALM 0 0 0 0 1024.4 1024.3 0.0
15/01:00am 12.6 12.8 10.7 88 1.0 CALM 0 0 0 0 1024.6 1024.5 0.0
15/12:30am 12.4 12.6 10.5 88 1.0 CALM 0 0 0 0 1024.6 1024.5 0.0
15/12:00am 12.3 11.3 10.4 88 1.0 SW 6 7 3 4 1024.6 1024.5 0.0
 
Date/Time
CDT
Temp
°C
App
Temp
°C
Dew
Point
°C
Rel
Hum
%
Delta-T
°C
Wind Press
QNH
hPa
Press
MSL
hPa
Rain since
9am
mm
Dir  Spd
km/h
Gust
km/h
Spd
kts
Gust
kts
14/11:30pm 11.8 10.1 9.9 88 1.0 WSW 9 11 5 6 1024.6 1024.5 0.0
14/11:00pm 11.1 9.2 9.2 88 1.0 WSW 9 11 5 6 1024.6 1024.5 0.0
14/10:30pm 10.9 8.6 9.0 88 0.9 WSW 11 13 6 7 1024.7 1024.6 0.0
14/10:00pm 11.1 9.1 8.8 86 1.1 WSW 9 11 5 6 1024.9 1024.8 0.0
14/09:30pm 11.4 9.1 9.1 86 1.1 WSW 11 13 6 7 1024.9 1024.8 0.0
14/09:00pm 11.1 9.1 8.7 85 1.2 WSW 9 11 5 6 1024.8 1024.7 0.0
14/08:30pm 11.4 9.4 8.8 84 1.3 WSW 9 11 5 6 1024.7 1024.6 0.0
14/08:00pm 11.9 9.2 9.1 83 1.4 SSW 13 15 7 8 1024.5 1024.4 0.0
14/07:30pm 12.6 10.0 9.4 81 1.6 SSW 13 15 7 8 1024.4 1024.3 0.0
14/07:00pm 14.0 10.4 9.8 76 2.2 S 19 26 10 14 1024.1 1024.0 0.0
14/06:30pm 15.1 11.0 10.1 72 2.6 S 22 30 12 16 1023.9 1023.8 0.0

Other Formats:

Comma delimited format used in spreadsheet applications
http://www.bom.gov.au/fwo/IDS60801/IDS60801.94814.axf

JavaScript Object Notation format (JSON) in row-major order
http://www.bom.gov.au/fwo/IDS60801/IDS60801.94814.json